createdAt,value
2019-01-03T00:00:16.133Z,3.67
2019-01-03T00:02:55.336Z,3.00
2019-01-03T00:05:43.505Z,4.97
2019-01-03T00:08:31.615Z,4.03
2019-01-03T00:11:19.753Z,2.80
2019-01-03T00:14:08.134Z,2.13
2019-01-03T00:16:56.265Z,6.23
2019-01-03T00:19:44.370Z,3.97
2019-01-03T00:22:32.512Z,2.17
2019-01-03T00:25:20.616Z,4.73
2019-01-03T00:28:03.035Z,1.97
2019-01-03T00:30:51.116Z,3.87
2019-01-03T00:33:39.256Z,6.60
2019-01-03T00:36:27.391Z,4.93
2019-01-03T00:39:15.561Z,3.83
2019-01-03T00:42:03.665Z,4.97
2019-01-03T00:44:51.834Z,1.53
2019-01-03T00:47:39.936Z,1.70
2019-01-03T00:50:28.097Z,2.50
2019-01-03T00:53:16.202Z,3.40
2019-01-03T00:56:04.341Z,3.07
2019-01-03T00:58:52.442Z,6.57
2019-01-03T01:01:40.780Z,2.50
2019-01-03T01:04:28.897Z,2.93
2019-01-03T01:07:17.051Z,4.07
2019-01-03T01:10:05.448Z,2.37
2019-01-03T01:12:53.581Z,3.17
2019-01-03T01:15:41.694Z,3.53
2019-01-03T01:18:29.821Z,3.87
2019-01-03T01:21:08.965Z,4.57
2019-01-03T01:23:57.090Z,2.70
2019-01-03T01:26:45.472Z,1.67
2019-01-03T01:29:33.592Z,5.73
2019-01-03T01:32:21.718Z,2.60
2019-01-03T01:35:10.040Z,5.63
2019-01-03T01:37:58.162Z,3.47
2019-01-03T01:40:46.587Z,3.03
2019-01-03T01:43:34.713Z,2.20
2019-01-03T01:46:22.818Z,4.33
2019-01-03T01:49:10.947Z,4.13
2019-01-03T01:51:59.057Z,4.73
2019-01-03T01:54:47.186Z,5.73
2019-01-03T01:57:35.312Z,3.07
2019-01-03T02:03:32.281Z,2.73
2019-01-03T02:06:20.582Z,4.50
2019-01-03T02:09:08.747Z,3.30
2019-01-03T02:11:56.851Z,2.77
2019-01-03T02:14:44.984Z,4.90
2019-01-03T02:17:33.115Z,2.30
2019-01-03T02:20:21.236Z,4.97
2019-01-03T02:23:09.486Z,2.70
2019-01-03T02:25:52.098Z,2.40
2019-01-03T02:28:40.228Z,3.67
2019-01-03T02:31:28.606Z,3.40
2019-01-03T02:34:16.738Z,3.63
2019-01-03T02:37:04.861Z,3.47
2019-01-03T02:39:52.987Z,1.37
2019-01-03T02:42:41.122Z,5.77
2019-01-03T02:45:29.250Z,3.30
2019-01-03T02:48:17.384Z,3.23
2019-01-03T02:51:05.484Z,3.43
2019-01-03T02:53:53.616Z,5.20
2019-01-03T02:56:41.753Z,3.03
2019-01-03T02:59:29.877Z,2.70
2019-01-03T03:02:17.979Z,3.67
2019-01-03T03:05:06.107Z,5.00
2019-01-03T03:07:54.203Z,3.33
2019-01-03T03:10:42.341Z,3.50
2019-01-03T03:13:30.465Z,3.80
2019-01-03T03:16:18.839Z,4.73
2019-01-03T03:19:06.973Z,5.47
2019-01-03T03:21:55.079Z,6.57
2019-01-03T03:24:43.200Z,2.23
2019-01-03T03:27:31.604Z,2.07
2019-01-03T03:30:19.730Z,5.07
2019-01-03T03:33:08.160Z,4.40
2019-01-03T03:35:56.587Z,2.27
2019-01-03T03:38:44.714Z,4.37
2019-01-03T03:41:40.690Z,1.90
2019-01-03T03:44:28.828Z,3.30
2019-01-03T03:47:16.946Z,5.00
2019-01-03T03:50:05.075Z,3.43
2019-01-03T03:52:53.214Z,4.60
2019-01-03T03:55:41.347Z,4.53
2019-01-03T03:58:29.456Z,3.17
2019-01-03T04:01:17.585Z,3.83
2019-01-03T04:04:05.713Z,4.90
2019-01-03T04:06:54.131Z,3.47
2019-01-03T04:09:35.519Z,4.77
2019-01-03T04:12:23.616Z,2.43
2019-01-03T04:15:30.776Z,3.67
2019-01-03T04:18:18.882Z,2.90
2019-01-03T04:21:07.013Z,2.33
2019-01-03T04:23:46.127Z,4.53
2019-01-03T04:26:35.168Z,3.57
2019-01-03T04:29:23.298Z,3.03
2019-01-03T04:32:11.703Z,3.73
2019-01-03T04:34:59.874Z,1.83
2019-01-03T04:37:47.975Z,3.23
2019-01-03T04:40:36.122Z,4.53
2019-01-03T04:43:24.230Z,4.37
2019-01-03T04:46:12.640Z,1.67
2019-01-03T04:49:00.749Z,3.43
2019-01-03T04:51:48.888Z,2.30
2019-01-03T04:54:37.023Z,3.70
2019-01-03T04:57:25.132Z,2.80
2019-01-03T05:00:13.539Z,2.27
2019-01-03T05:03:01.636Z,2.37
2019-01-03T05:05:49.767Z,3.57
2019-01-03T05:08:37.912Z,2.30
2019-01-03T05:11:26.050Z,3.60
2019-01-03T05:14:14.175Z,3.90
2019-01-03T05:17:01.054Z,5.83
2019-01-03T05:19:49.160Z,2.20
2019-01-03T05:22:37.844Z,1.70
2019-01-03T05:25:26.112Z,1.70
2019-01-03T05:28:14.216Z,2.60
2019-01-03T05:31:02.337Z,3.43
2019-01-03T05:33:50.839Z,2.27
2019-01-03T05:36:39.001Z,2.27
2019-01-03T05:39:27.091Z,2.07
2019-01-03T05:42:05.513Z,2.03
2019-01-03T05:44:53.614Z,4.50
2019-01-03T05:47:41.295Z,2.13
2019-01-03T05:50:29.426Z,3.80
2019-01-03T05:53:17.532Z,4.63
2019-01-03T05:56:05.665Z,3.20
2019-01-03T05:58:53.762Z,2.40
2019-01-03T06:01:42.165Z,2.13
2019-01-03T06:04:30.279Z,3.80
2019-01-03T06:07:18.413Z,2.70
2019-01-03T06:10:06.516Z,2.27
2019-01-03T06:13:13.736Z,2.93
2019-01-03T06:15:56.147Z,3.20
2019-01-03T06:18:44.528Z,2.27
2019-01-03T06:21:32.694Z,1.93
2019-01-03T06:24:21.074Z,3.70
2019-01-03T06:27:09.206Z,2.97
2019-01-03T06:29:57.308Z,2.93
2019-01-03T06:32:45.527Z,1.30
2019-01-03T06:35:33.637Z,2.87
2019-01-03T06:38:21.788Z,1.60
2019-01-03T06:41:09.918Z,2.40
2019-01-03T06:43:58.016Z,2.60
2019-01-03T06:46:46.165Z,3.10
2019-01-03T06:49:34.282Z,3.97
2019-01-03T06:52:22.406Z,3.10
2019-01-03T06:55:10.534Z,3.63
2019-01-03T06:57:58.660Z,1.77
2019-01-03T07:00:46.770Z,3.33
2019-01-03T07:03:29.815Z,2.90
2019-01-03T07:06:17.947Z,2.50
2019-01-03T07:09:06.060Z,3.90
2019-01-03T07:11:54.489Z,2.30
2019-01-03T07:14:42.597Z,4.27
2019-01-03T07:17:23.250Z,4.63
2019-01-03T07:20:11.381Z,2.93
2019-01-03T07:22:59.521Z,3.97
2019-01-03T07:25:47.634Z,3.67
2019-01-03T07:28:36.055Z,3.07
2019-01-03T07:31:24.158Z,2.27
2019-01-03T07:34:12.305Z,3.70
2019-01-03T07:37:00.434Z,5.67
2019-01-03T07:39:48.608Z,2.63
2019-01-03T07:42:37.029Z,2.33
2019-01-03T07:45:25.303Z,2.27
2019-01-03T07:48:13.454Z,3.10
2019-01-03T07:51:01.614Z,3.17
2019-01-03T07:53:49.916Z,4.17
2019-01-03T07:56:38.048Z,5.40
2019-01-03T07:59:26.434Z,3.53
2019-01-03T08:02:14.574Z,4.20
2019-01-03T08:05:02.686Z,5.07
2019-01-03T08:07:50.819Z,2.57
2019-01-03T08:10:38.928Z,5.67
2019-01-03T08:13:27.058Z,4.23
2019-01-03T08:16:15.187Z,2.47
2019-01-03T08:19:03.295Z,2.27
2019-01-03T08:21:51.426Z,4.47
2019-01-03T08:24:39.531Z,2.20
2019-01-03T08:27:27.938Z,3.80
2019-01-03T08:30:16.043Z,4.83
2019-01-03T08:33:04.383Z,4.97
2019-01-03T08:35:52.492Z,5.27
2019-01-03T08:38:40.938Z,3.60
2019-01-03T08:41:29.039Z,4.30
2019-01-03T08:44:17.172Z,2.77
2019-01-03T08:47:05.301Z,4.67
2019-01-03T08:49:53.432Z,2.30
2019-01-03T08:52:37.613Z,3.17
2019-01-03T08:55:25.823Z,3.47
2019-01-03T08:58:14.157Z,2.57
2019-01-03T09:01:02.262Z,4.33
2019-01-03T09:03:50.403Z,6.43
2019-01-03T09:06:38.505Z,2.80
2019-01-03T09:09:26.970Z,1.90
2019-01-03T09:12:15.078Z,3.17
2019-01-03T09:15:03.231Z,4.07
2019-01-03T09:17:51.344Z,5.13
2019-01-03T09:20:39.472Z,4.77
2019-01-03T09:23:27.575Z,4.23
2019-01-03T09:26:15.700Z,6.80
2019-01-03T09:29:03.848Z,3.67
2019-01-03T09:31:51.992Z,3.43
2019-01-03T09:34:36.946Z,2.50
2019-01-03T09:37:27.074Z,3.80
2019-01-03T09:40:15.180Z,5.10
2019-01-03T09:43:03.602Z,5.43
2019-01-03T09:45:43.830Z,3.33
2019-01-03T09:48:03.685Z,3.67
2019-01-03T09:53:07.989Z,3.70
2019-01-03T09:55:37.192Z,2.47
2019-01-03T09:58:06.364Z,3.40
2019-01-03T10:00:54.634Z,3.53
2019-01-03T10:03:23.808Z,4.37
2019-01-03T10:05:53.017Z,6.80
2019-01-03T10:08:22.224Z,3.87
2019-01-03T10:10:51.391Z,2.97
2019-01-03T10:13:20.913Z,4.30
2019-01-03T10:15:50.081Z,3.53
2019-01-03T10:18:19.284Z,4.50
2019-01-03T10:20:48.465Z,4.77
2019-01-03T10:23:17.665Z,4.20
2019-01-03T10:25:46.836Z,2.83
2019-01-03T10:28:16.030Z,5.23
2019-01-03T10:30:45.228Z,3.60
2019-01-03T10:33:14.421Z,3.10
2019-01-03T10:35:43.638Z,3.80
2019-01-03T10:38:12.824Z,3.87
2019-01-03T10:40:42.000Z,2.33
2019-01-03T10:43:11.211Z,2.90
2019-01-03T10:45:40.527Z,4.47
2019-01-03T10:48:09.795Z,2.90
2019-01-03T10:50:38.992Z,3.50
2019-01-03T10:53:08.223Z,7.07
2019-01-03T10:55:37.380Z,4.67
2019-01-03T10:58:06.572Z,4.50
2019-01-03T11:00:35.825Z,4.13
2019-01-03T11:03:05.023Z,5.40
2019-01-03T11:05:34.573Z,4.30
2019-01-03T11:08:03.744Z,4.73
2019-01-03T11:10:32.953Z,3.73
2019-01-03T11:13:02.125Z,6.43
2019-01-03T11:15:31.667Z,5.53
2019-01-03T11:20:35.576Z,5.57
2019-01-03T11:23:04.777Z,2.60
2019-01-03T11:25:33.947Z,4.03
2019-01-03T11:28:03.490Z,3.57
2019-01-03T11:30:32.689Z,5.77
2019-01-03T11:33:01.853Z,4.03
2019-01-03T11:35:31.042Z,3.77
2019-01-03T11:38:00.247Z,4.27
2019-01-03T11:40:29.784Z,5.50
2019-01-03T11:42:58.955Z,4.47
2019-01-03T11:45:28.162Z,5.27
2019-01-03T11:47:57.331Z,4.20
2019-01-03T11:50:26.762Z,5.43
2019-01-03T11:52:55.971Z,4.23
2019-01-03T11:55:25.161Z,6.17
2019-01-03T11:57:54.331Z,5.37
2019-01-03T12:00:23.541Z,3.13
2019-01-03T12:02:52.711Z,6.13
2019-01-03T12:05:21.905Z,2.90
2019-01-03T12:07:51.072Z,6.10
2019-01-03T12:10:20.271Z,2.23
2019-01-03T12:12:49.453Z,3.90
2019-01-03T12:15:18.629Z,4.90
2019-01-03T12:17:47.793Z,5.13
2019-01-03T12:20:16.989Z,4.90
2019-01-03T12:22:46.161Z,3.23
2019-01-03T12:25:15.651Z,2.17
2019-01-03T12:27:45.157Z,5.37
2019-01-03T12:30:14.353Z,4.33
2019-01-03T12:32:43.860Z,3.73
2019-01-03T12:35:13.451Z,5.43
2019-01-03T12:37:42.621Z,5.73
2019-01-03T12:40:11.910Z,4.23
2019-01-03T12:42:41.109Z,6.40
2019-01-03T12:45:10.288Z,5.40
2019-01-03T12:47:39.453Z,2.83
2019-01-03T12:50:10.768Z,6.93
2019-01-03T12:52:39.939Z,2.33
2019-01-03T12:55:09.210Z,2.83
2019-01-03T12:57:38.399Z,3.43
2019-01-03T13:00:10.761Z,4.70
2019-01-03T13:02:39.953Z,3.93
2019-01-03T13:05:09.132Z,3.60
2019-01-03T13:07:38.666Z,6.10
2019-01-03T13:10:09.095Z,5.67
2019-01-03T13:12:38.286Z,2.60
2019-01-03T13:15:08.691Z,3.53
2019-01-03T13:17:38.221Z,4.77
2019-01-03T13:20:08.755Z,3.23
2019-01-03T13:22:38.067Z,2.97
2019-01-03T13:25:07.567Z,7.57
2019-01-03T13:27:36.759Z,4.87
2019-01-03T13:30:07.277Z,2.90
2019-01-03T13:32:36.469Z,6.43
2019-01-03T13:35:05.812Z,3.43
2019-01-03T13:37:34.977Z,3.43
2019-01-03T13:40:04.532Z,3.87
2019-01-03T13:42:52.813Z,4.80
2019-01-03T13:45:21.984Z,2.80
2019-01-03T13:47:51.156Z,4.43
2019-01-03T13:50:20.370Z,4.03
2019-01-03T13:52:49.548Z,4.33
2019-01-03T13:55:18.733Z,4.40
2019-01-03T13:57:47.896Z,2.80
2019-01-03T14:00:17.085Z,6.20
2019-01-03T14:02:46.249Z,4.87
2019-01-03T14:05:15.835Z,5.30
2019-01-03T14:07:44.976Z,5.53
2019-01-03T14:13:08.912Z,3.30
2019-01-03T14:15:38.081Z,3.77
2019-01-03T14:18:07.605Z,4.73
2019-01-03T14:20:36.788Z,2.70
2019-01-03T14:23:06.351Z,5.33
2019-01-03T14:25:35.909Z,2.80
2019-01-03T14:28:05.081Z,6.77
2019-01-03T14:30:34.610Z,3.83
2019-01-03T14:33:03.812Z,4.80
2019-01-03T14:35:33.008Z,3.63
2019-01-03T14:38:02.515Z,2.83
2019-01-03T14:40:50.894Z,2.00
2019-01-03T14:43:20.091Z,4.67
2019-01-03T14:45:49.254Z,4.60
2019-01-03T14:48:18.758Z,3.63
2019-01-03T14:50:47.952Z,3.53
2019-01-03T14:53:17.503Z,4.70
2019-01-03T14:55:46.697Z,4.47
2019-01-03T14:58:15.881Z,3.80
2019-01-03T15:00:45.087Z,6.33
2019-01-03T15:03:14.259Z,5.07
2019-01-03T15:05:43.447Z,6.20
2019-01-03T15:08:12.626Z,5.00
2019-01-03T15:10:41.789Z,5.10
2019-01-03T15:13:10.984Z,2.73
2019-01-03T15:15:40.157Z,6.43
2019-01-03T15:18:09.399Z,4.87
2019-01-03T15:20:38.575Z,4.27
2019-01-03T15:23:07.760Z,4.17
2019-01-03T15:25:36.933Z,6.23
2019-01-03T15:28:06.132Z,3.77
2019-01-03T15:30:35.307Z,3.10
2019-01-03T15:33:04.506Z,4.67
2019-01-03T15:35:33.705Z,6.47
2019-01-03T15:38:02.899Z,5.03
2019-01-03T15:40:32.070Z,6.43
2019-01-03T15:43:01.281Z,5.07
2019-01-03T15:45:30.445Z,4.03
2019-01-03T15:47:59.652Z,3.20
2019-01-03T15:50:28.827Z,5.53
2019-01-03T15:52:58.027Z,6.40
2019-01-03T15:55:27.201Z,4.17
2019-01-03T15:57:56.771Z,3.00
2019-01-03T16:00:26.009Z,6.10
2019-01-03T16:02:55.202Z,3.37
2019-01-03T16:05:24.696Z,3.43
2019-01-03T16:07:54.180Z,3.17
2019-01-03T16:10:23.352Z,3.00
2019-01-03T16:12:52.575Z,6.07
2019-01-03T16:15:22.439Z,3.63
2019-01-03T16:17:51.917Z,3.67
2019-01-03T16:20:21.132Z,6.03
2019-01-03T16:22:50.299Z,5.27
2019-01-03T16:25:19.495Z,5.20
2019-01-03T16:27:48.666Z,5.87
2019-01-03T16:30:17.866Z,4.13
2019-01-03T16:32:47.047Z,4.10
2019-01-03T16:35:16.778Z,4.17
2019-01-03T16:37:45.977Z,4.93
2019-01-03T16:40:15.516Z,6.10
2019-01-03T16:42:45.738Z,4.87
2019-01-03T16:45:54.646Z,3.37
2019-01-03T16:48:23.862Z,4.13
2019-01-03T16:50:53.039Z,5.90
2019-01-03T16:53:22.209Z,5.53
2019-01-03T16:55:51.405Z,4.20
2019-01-03T16:58:20.573Z,2.70
2019-01-03T17:00:49.762Z,5.30
2019-01-03T17:03:18.944Z,4.30
2019-01-03T17:05:48.138Z,5.37
2019-01-03T17:08:17.310Z,3.03
2019-01-03T17:10:46.507Z,5.47
2019-01-03T17:13:15.680Z,5.00
2019-01-03T17:15:44.899Z,5.93
2019-01-03T17:18:14.074Z,2.37
2019-01-03T17:20:43.254Z,6.90
2019-01-03T17:23:12.815Z,6.57
2019-01-03T17:25:42.337Z,7.47
2019-01-03T17:28:11.519Z,3.23
2019-01-03T17:30:41.039Z,3.73
2019-01-03T17:33:10.219Z,5.67
2019-01-03T17:35:39.387Z,5.20
2019-01-03T17:38:08.612Z,4.77
2019-01-03T17:40:57.202Z,4.03
2019-01-03T17:43:26.685Z,5.17
2019-01-03T17:45:55.902Z,5.63
2019-01-03T17:48:25.489Z,5.17
2019-01-03T17:50:54.741Z,4.73
2019-01-03T17:53:23.906Z,3.53
2019-01-03T17:55:53.926Z,3.50
2019-01-03T17:58:23.123Z,6.00
2019-01-03T18:00:53.544Z,4.30
2019-01-03T18:03:22.774Z,4.27
2019-01-03T18:05:52.013Z,3.93
2019-01-03T18:08:21.535Z,4.33
2019-01-03T18:10:50.705Z,4.90
2019-01-03T18:16:14.739Z,4.20
2019-01-03T18:18:44.371Z,4.53
2019-01-03T18:21:13.564Z,5.93
2019-01-03T18:23:42.867Z,5.43
2019-01-03T18:26:12.840Z,5.03
2019-01-03T18:28:42.429Z,6.03
2019-01-03T18:31:11.610Z,7.07
2019-01-03T18:33:40.786Z,8.43
2019-01-03T18:36:10.003Z,6.13
2019-01-03T18:38:39.224Z,10.13
2019-01-03T18:41:08.460Z,21.70
2019-01-03T18:43:37.646Z,7.33
2019-01-03T18:46:07.143Z,6.10
2019-01-03T18:48:36.324Z,6.47
2019-01-03T18:51:05.516Z,7.07
2019-01-03T18:53:34.701Z,11.23
2019-01-03T18:56:04.445Z,4.20
2019-01-03T18:58:33.626Z,5.73
2019-01-03T19:01:02.984Z,7.13
2019-01-03T19:03:32.546Z,11.03
2019-01-03T19:06:02.050Z,5.67
2019-01-03T19:08:31.244Z,4.47
2019-01-03T19:11:00.452Z,7.13
2019-01-03T19:13:29.639Z,7.60
2019-01-03T19:15:58.858Z,5.33
2019-01-03T19:18:28.033Z,6.33
2019-01-03T19:20:57.235Z,5.83
2019-01-03T19:23:26.414Z,4.27
2019-01-03T19:25:56.471Z,4.40
2019-01-03T19:28:26.021Z,4.60
2019-01-03T19:30:55.215Z,7.57
2019-01-03T19:33:24.385Z,3.97
2019-01-03T19:35:53.583Z,6.53
2019-01-03T19:38:22.774Z,5.47
2019-01-03T19:40:51.977Z,5.53
2019-01-03T19:43:21.152Z,6.30
2019-01-03T19:45:50.362Z,3.50
2019-01-03T19:48:19.540Z,3.77
2019-01-03T19:50:48.737Z,5.67
2019-01-03T19:53:18.231Z,3.47
2019-01-03T19:55:47.443Z,8.73
2019-01-03T19:58:16.939Z,5.50
2019-01-03T20:01:26.215Z,4.03
2019-01-03T20:03:55.387Z,6.17
2019-01-03T20:06:24.627Z,6.23
2019-01-03T20:08:54.181Z,4.47
2019-01-03T20:11:26.655Z,3.73
2019-01-03T20:13:56.330Z,5.70
2019-01-03T20:16:25.542Z,5.07
2019-01-03T20:19:13.671Z,5.63
2019-01-03T20:21:42.891Z,6.03
2019-01-03T20:24:12.404Z,7.83
2019-01-03T20:26:41.606Z,5.63
2019-01-03T20:29:10.794Z,5.87
2019-01-03T20:31:40.302Z,5.27
2019-01-03T20:34:09.809Z,5.00
2019-01-03T20:36:39.413Z,8.07
2019-01-03T20:39:08.918Z,5.10
2019-01-03T20:42:17.776Z,5.33
2019-01-03T20:44:46.963Z,4.43
2019-01-03T20:47:16.448Z,4.67
2019-01-03T20:49:45.750Z,4.73
2019-01-03T20:52:14.954Z,7.07
2019-01-03T20:55:03.057Z,8.77
2019-01-03T20:57:32.248Z,5.73
2019-01-03T21:00:01.424Z,5.00
2019-01-03T21:02:30.617Z,6.93
2019-01-03T21:04:59.843Z,6.27
2019-01-03T21:07:29.051Z,5.80
2019-01-03T21:09:58.221Z,8.33
2019-01-03T21:12:27.419Z,10.80
2019-01-03T21:14:56.589Z,7.50
2019-01-03T21:17:25.783Z,8.30
2019-01-03T21:19:54.956Z,9.67
2019-01-03T21:22:24.149Z,6.47
2019-01-03T21:24:53.353Z,6.50
2019-01-03T21:27:22.549Z,7.33
2019-01-03T21:29:51.722Z,6.10
2019-01-03T21:32:21.251Z,7.77
2019-01-03T21:34:50.422Z,9.43
2019-01-03T21:37:19.637Z,7.57
2019-01-03T21:39:48.812Z,9.57
2019-01-03T21:42:18.320Z,6.53
2019-01-03T21:44:47.483Z,9.30
2019-01-03T21:47:16.763Z,8.67
2019-01-03T21:49:46.257Z,9.37
2019-01-03T21:52:15.451Z,9.73
2019-01-03T21:54:44.949Z,8.70
2019-01-03T21:57:14.142Z,9.27
2019-01-03T21:59:43.328Z,8.77
2019-01-03T22:02:12.536Z,7.97
2019-01-03T22:04:41.737Z,7.37
2019-01-03T22:07:10.931Z,9.17
2019-01-03T22:09:40.114Z,8.60
2019-01-03T22:12:09.649Z,10.00
2019-01-03T22:14:38.932Z,10.30
2019-01-03T22:17:08.179Z,10.30
2019-01-03T22:19:37.346Z,7.90
2019-01-03T22:22:06.566Z,10.70
2019-01-03T22:24:35.739Z,9.97
2019-01-03T22:27:05.007Z,9.67
2019-01-03T22:29:34.950Z,9.87
2019-01-03T22:32:04.195Z,10.67
2019-01-03T22:34:33.396Z,9.50
2019-01-03T22:37:02.632Z,9.40
2019-01-03T22:39:31.809Z,9.73
2019-01-03T22:42:01.009Z,10.87
2019-01-03T22:44:30.207Z,9.30
2019-01-03T22:46:59.414Z,8.40
2019-01-03T22:49:28.946Z,9.10
2019-01-03T22:51:58.132Z,8.40
2019-01-03T22:54:26.153Z,10.07
2019-01-03T22:56:55.344Z,13.30
2019-01-03T22:59:24.879Z,8.33
2019-01-03T23:01:54.048Z,9.50
2019-01-03T23:06:58.417Z,12.17
2019-01-03T23:09:27.624Z,10.57
2019-01-03T23:11:56.799Z,8.80
2019-01-03T23:14:26.339Z,11.77
2019-01-03T23:16:55.523Z,10.63
2019-01-03T23:19:24.729Z,11.83
2019-01-03T23:21:53.908Z,12.37
2019-01-03T23:24:23.132Z,10.53
2019-01-03T23:26:52.331Z,10.43
2019-01-03T23:29:21.536Z,12.73
2019-01-03T23:31:51.066Z,9.20
2019-01-03T23:34:20.270Z,11.00
2019-01-03T23:37:01.309Z,11.37
2019-01-03T23:39:30.530Z,11.87
2019-01-03T23:41:59.703Z,12.17
2019-01-03T23:44:28.915Z,12.93
2019-01-03T23:46:58.108Z,11.53
2019-01-03T23:49:27.302Z,13.57
2019-01-03T23:51:56.480Z,11.37
2019-01-03T23:54:25.687Z,10.13
2019-01-03T23:56:54.872Z,10.27
2019-01-03T23:59:24.063Z,10.37
